Time;durP1;ratioP1;P1;durP2;ratioP2;P2;SDS_P1;SDS_P2;PMS_P1;PMS_P2;Temp;Humidity;BMP_temperature;BMP_pressure;BME280_temperature;BME280_humidity;BME280_pressure;Samples;Min_cycle;Max_cycle;Signal;HPM_P1;HPM_P2
2022/01/22 00:01:43;;;;;;;32.05;2.92;;;6.30;99.90;;;;;;4952283;29;20047;-85
2022/01/22 00:04:09;;;;;;;31.80;3.40;;;6.30;99.90;;;;;;4950650;29;20055;-83
2022/01/22 00:06:35;;;;;;;32.63;2.90;;;6.30;99.90;;;;;;4952135;29;20054;-86
2022/01/22 00:09:00;;;;;;;24.00;3.35;;;6.20;99.90;;;;;;4934563;29;20043;-84
2022/01/22 00:11:34;;;;;;;17.17;2.28;;;6.30;99.90;;;;;;4952003;29;20043;-82
2022/01/22 00:16:44;;;;;;;18.43;2.43;;;6.30;99.90;;;;;;4934095;29;20055;-82
2022/01/22 00:19:10;;;;;;;22.08;4.28;;;6.20;99.90;;;;;;4952149;29;20046;-84
2022/01/22 00:21:38;;;;;;;23.00;2.60;;;7.00;99.90;;;;;;4952081;29;20050;-85
2022/01/22 00:24:07;;;;;;;26.80;3.00;;;6.20;99.90;;;;;;4951912;29;20050;-88
2022/01/22 00:26:33;;;;;;;30.00;2.70;;;6.20;99.90;;;;;;4951945;29;20047;-84
2022/01/22 00:28:59;;;;;;;25.23;3.95;;;6.30;99.90;;;;;;4951959;29;20071;-83
2022/01/22 00:31:24;;;;;;;25.65;3.30;;;6.30;99.90;;;;;;4934743;29;20059;-89
2022/01/22 00:33:50;;;;;;;27.38;2.60;;;6.30;99.90;;;;;;4934710;29;20399;-85
2022/01/22 00:36:16;;;;;;;27.70;3.38;;;6.30;99.90;;;;;;4935075;29;20073;-83
2022/01/22 00:38:42;;;;;;;26.60;2.58;;;6.30;99.90;;;;;;4951748;29;20039;-87
2022/01/22 00:41:08;;;;;;;20.73;2.42;;;6.30;99.90;;;;;;4951901;29;20043;-86
2022/01/22 00:43:33;;;;;;;13.23;2.65;;;6.60;99.90;;;;;;4937886;29;20055;-84
2022/01/22 00:45:59;;;;;;;19.75;2.10;;;6.30;99.90;;;;;;4932613;29;20415;-87
2022/01/22 00:48:25;;;;;;;22.42;2.78;;;6.90;99.90;;;;;;4932881;29;20426;-86
2022/01/22 00:50:54;;;;;;;13.05;1.85;;;6.30;99.90;;;;;;4915559;29;20055;-88
2022/01/22 00:53:20;;;;;;;20.15;3.30;;;6.30;99.90;;;;;;4935717;29;20055;-81
2022/01/22 00:55:46;;;;;;;15.05;2.22;;;6.30;99.90;;;;;;4951634;29;20406;-86
2022/01/22 00:58:12;;;;;;;17.27;2.40;;;6.50;99.90;;;;;;4934548;29;20061;-84
2022/01/22 01:00:37;;;;;;;16.70;2.33;;;6.30;99.90;;;;;;4951578;29;20458;-89
2022/01/22 01:03:04;;;;;;;28.40;3.05;;;6.30;99.90;;;;;;4951641;29;20055;-89
2022/01/22 01:05:29;;;;;;;16.67;2.08;;;6.30;99.90;;;;;;4934225;29;20051;-82
2022/01/22 01:07:55;;;;;;;19.38;3.40;;;6.30;99.90;;;;;;4934268;29;20487;-82
2022/01/22 01:10:21;;;;;;;17.00;2.40;;;6.50;99.90;;;;;;4951442;29;20470;-82
2022/01/22 01:12:49;;;;;;;17.38;2.20;;;6.30;99.90;;;;;;4951513;29;20078;-84
2022/01/22 01:34:21;;;;;;;18.58;2.17;;;6.30;99.90;;;;;;4937647;29;20138;-82
2022/01/22 01:36:48;;;;;;;26.35;2.17;;;6.30;99.90;;;;;;4937357;29;20083;-82
2022/01/22 01:39:20;;;;;;;20.00;2.65;;;6.30;99.90;;;;;;4953608;29;20063;-85
2022/01/22 01:41:56;;;;;;;12.55;2.30;;;6.30;99.90;;;;;;4954444;29;20055;-84
2022/01/22 01:44:22;;;;;;;11.48;1.92;;;6.40;99.90;;;;;;4937647;29;20066;-83
2022/01/22 01:46:51;;;;;;;17.45;2.70;;;7.00;99.90;;;;;;4954630;29;20047;-87
2022/01/22 01:49:17;;;;;;;21.45;2.85;;;6.30;99.90;;;;;;4954668;29;20090;-81
2022/01/22 01:51:44;;;;;;;17.00;1.90;;;6.60;99.90;;;;;;4954457;29;20086;-83
2022/01/22 01:54:35;;;;;;;13.63;2.03;;;6.90;99.90;;;;;;4937166;29;20122;-87
2022/01/22 01:59:50;;;;;;;19.88;1.88;;;6.30;99.90;;;;;;4954733;29;20051;-84
2022/01/22 02:02:16;;;;;;;14.40;1.70;;;6.30;99.90;;;;;;4954566;29;20133;-86
2022/01/22 02:04:42;;;;;;;17.85;2.35;;;6.30;99.90;;;;;;4954166;29;20075;-82
2022/01/22 02:07:08;;;;;;;15.68;1.98;;;6.30;99.90;;;;;;4954137;29;20055;-87
2022/01/22 02:09:34;;;;;;;7.97;1.63;;;6.30;99.90;;;;;;4954418;29;20043;-81
2022/01/22 02:12:07;;;;;;;10.95;1.25;;;6.30;99.90;;;;;;4954249;29;20062;-81
2022/01/22 02:25:24;;;;;;;8.40;1.15;;;6.30;99.90;;;;;;4936319;29;20055;-87
2022/01/22 02:27:50;;;;;;;9.00;1.60;;;6.30;99.90;;;;;;4953648;29;20058;-83
2022/01/22 02:30:22;;;;;;;9.80;1.30;;;6.30;99.90;;;;;;4953875;29;20814;-88
2022/01/22 02:33:17;;;;;;;14.20;1.58;;;6.30;99.90;;;;;;4952575;28;20047;-88
2022/01/22 02:35:52;;;;;;;12.05;2.13;;;6.30;99.90;;;;;;4936403;29;20053;-81
2022/01/22 02:38:29;;;;;;;14.18;1.73;;;7.00;99.90;;;;;;4953596;29;20070;-86
2022/01/22 02:40:55;;;;;;;10.23;1.25;;;6.30;99.90;;;;;;4953676;29;20043;-88
2022/01/22 02:43:21;;;;;;;10.95;1.92;;;6.30;99.90;;;;;;4936436;29;20051;-79
2022/01/22 02:45:48;;;;;;;10.75;1.50;;;6.30;99.90;;;;;;4936062;29;20083;-85
2022/01/22 02:48:14;;;;;;;13.05;1.17;;;6.30;99.90;;;;;;4953538;29;20582;-82
2022/01/22 02:50:40;;;;;;;15.82;2.00;;;6.30;99.90;;;;;;4953268;29;20047;-86
2022/01/22 02:53:09;;;;;;;11.90;1.30;;;6.90;99.90;;;;;;4936011;29;20126;-87
2022/01/22 02:55:34;;;;;;;14.32;1.63;;;7.10;99.90;;;;;;4936008;29;20054;-81
2022/01/22 02:58:01;;;;;;;14.13;1.50;;;7.00;99.90;;;;;;4935961;29;20396;-81
2022/01/22 03:00:27;;;;;;;12.88;1.58;;;6.90;99.90;;;;;;4952835;29;20057;-80
2022/01/22 03:02:53;;;;;;;8.48;1.30;;;6.30;99.90;;;;;;4952623;29;20043;-84
2022/01/22 03:05:19;;;;;;;9.27;1.25;;;6.20;99.90;;;;;;4952867;29;20511;-84
2022/01/22 03:07:50;;;;;;;10.13;1.55;;;6.30;99.90;;;;;;4952514;29;20047;-84
2022/01/22 03:10:19;;;;;;;8.82;1.55;;;6.20;99.90;;;;;;4951422;29;20062;-80
2022/01/22 03:13:12;;;;;;;5.93;1.60;;;6.20;99.90;;;;;;4951558;29;20059;-81
2022/01/22 03:18:15;;;;;;;13.55;1.60;;;6.20;99.90;;;;;;4952774;29;20062;-86
2022/01/22 03:21:06;;;;;;;;;;;6.20;99.90;;;;;;4953377;29;20047;-83
2022/01/22 03:29:09;;;;;;;6.55;1.40;;;6.20;99.90;;;;;;4951120;29;20052;-82
2022/01/22 03:31:36;;;;;;;12.80;1.77;;;6.20;99.90;;;;;;4967596;28;20937;-86
2022/01/22 03:34:02;;;;;;;15.23;2.08;;;6.20;99.90;;;;;;4952719;29;20059;-81
2022/01/22 03:36:30;;;;;;;17.00;2.15;;;6.20;99.90;;;;;;4952654;29;20051;-82
2022/01/22 03:38:56;;;;;;;11.02;1.60;;;6.20;99.90;;;;;;4934934;29;20116;-88
2022/01/22 03:41:23;;;;;;;16.02;2.13;;;6.20;99.90;;;;;;4934522;29;20085;-79
2022/01/22 03:43:50;;;;;;;12.00;1.27;;;6.20;99.90;;;;;;4934832;29;20059;-87
2022/01/22 03:46:16;;;;;;;9.35;1.52;;;6.20;99.90;;;;;;4934597;29;20074;-82
2022/01/22 03:48:42;;;;;;;7.75;1.70;;;6.20;99.90;;;;;;4952545;29;20438;-86
2022/01/22 03:51:08;;;;;;;6.38;1.17;;;6.60;99.90;;;;;;4952166;29;20174;-86
2022/01/22 03:53:33;;;;;;;10.48;1.40;;;6.20;99.90;;;;;;4952354;29;20090;-84
2022/01/22 03:56:03;;;;;;;14.00;1.65;;;6.10;99.90;;;;;;4952335;29;20055;-82
2022/01/22 03:58:31;;;;;;;17.77;2.20;;;6.10;99.90;;;;;;4952308;29;20067;-83
2022/01/22 04:01:44;;;;;;;6.40;1.33;;;6.20;99.90;;;;;;4935012;29;20402;-81
2022/01/22 04:04:06;;;;;;;11.75;1.10;;;6.10;99.90;;;;;;4916191;29;20078;-86
2022/01/22 04:09:06;;;;;;;5.40;1.40;;;6.10;99.90;;;;;;4948776;29;20138;-82
2022/01/22 04:11:35;;;;;;;12.82;1.25;;;6.30;99.90;;;;;;4951648;29;20110;-80
2022/01/22 04:14:03;;;;;;;7.18;1.40;;;6.10;99.90;;;;;;4952039;29;20047;-86
2022/01/22 04:16:30;;;;;;;11.50;1.17;;;6.10;99.90;;;;;;4934773;29;20126;-84
2022/01/22 04:27:12;;;;;;;;;;;6.10;99.90;;;;;;4934584;28;20058;-81
2022/01/22 04:29:39;;;;;;;15.35;1.25;;;6.10;99.90;;;;;;4951909;29;19926;-80
2022/01/22 04:32:05;;;;;;;5.43;1.65;;;6.10;99.90;;;;;;4951547;29;20043;-81
2022/01/22 04:34:31;;;;;;;19.45;1.65;;;6.10;99.90;;;;;;4934719;29;20051;-82
2022/01/22 04:36:57;;;;;;;10.75;1.40;;;6.10;99.90;;;;;;4934288;29;20061;-80
2022/01/22 04:39:24;;;;;;;9.52;1.20;;;6.10;99.90;;;;;;4949319;29;20259;-82
2022/01/22 04:41:52;;;;;;;7.60;1.10;;;6.10;99.90;;;;;;4951606;29;20493;-81
2022/01/22 04:44:18;;;;;;;13.52;1.65;;;6.10;99.90;;;;;;4951950;29;20055;-82
2022/01/22 04:57:18;;;;;;;10.48;1.80;;;6.70;99.90;;;;;;4896028;29;20160;-84
2022/01/22 04:59:44;;;;;;;13.98;2.22;;;7.10;99.90;;;;;;4880653;29;20056;-83
2022/01/22 05:02:10;;;;;;;9.30;1.63;;;6.40;99.90;;;;;;4884438;29;20426;-87
2022/01/22 05:04:36;;;;;;;11.90;1.52;;;6.10;99.90;;;;;;4915500;29;20135;-87
2022/01/22 05:07:02;;;;;;;8.18;1.42;;;6.10;99.90;;;;;;4899703;29;20059;-88
2022/01/22 05:09:27;;;;;;;12.77;1.65;;;6.10;99.90;;;;;;4889769;29;20492;-82
2022/01/22 05:11:53;;;;;;;19.00;2.28;;;6.10;99.90;;;;;;4897769;29;20052;-81
2022/01/22 05:14:19;;;;;;;7.97;1.65;;;6.70;99.90;;;;;;4914523;29;20170;-81
2022/01/22 05:16:44;;;;;;;8.45;1.50;;;6.10;99.90;;;;;;4914574;29;20048;-87
2022/01/22 05:19:24;;;;;;;20.33;1.65;;;6.10;99.90;;;;;;4898572;29;20066;-87
2022/01/22 05:21:52;;;;;;;9.88;1.38;;;6.10;99.90;;;;;;4912364;29;20431;-86
2022/01/22 05:24:23;;;;;;;10.52;1.42;;;6.10;99.90;;;;;;4893605;29;20080;-84
2022/01/22 05:37:11;;;;;;;7.70;0.98;;;6.00;99.90;;;;;;4927092;29;20455;-87
2022/01/22 05:39:37;;;;;;;9.35;1.52;;;6.10;99.90;;;;;;4954740;29;20087;-84
2022/01/22 05:42:05;;;;;;;12.80;1.10;;;6.10;99.90;;;;;;4933971;29;20052;-82
2022/01/22 05:44:32;;;;;;;9.32;1.20;;;6.10;99.90;;;;;;4934215;29;20095;-81
2022/01/22 05:47:03;;;;;;;7.40;1.13;;;6.00;99.90;;;;;;4934652;29;20499;-81
2022/01/22 05:49:31;;;;;;;9.07;0.82;;;6.00;99.90;;;;;;4954256;29;20494;-86
2022/01/22 05:51:59;;;;;;;7.22;1.13;;;6.00;99.90;;;;;;4937261;29;20071;-82
2022/01/22 05:59:53;;;;;;;10.18;1.63;;;6.00;99.90;;;;;;4937077;29;20066;-87
2022/01/22 06:02:19;;;;;;;15.00;1.52;;;6.10;99.90;;;;;;4954215;29;20565;-88
2022/01/22 06:04:45;;;;;;;10.02;1.10;;;6.00;99.90;;;;;;4954290;29;20058;-84
2022/01/22 06:07:12;;;;;;;8.02;0.88;;;6.00;99.90;;;;;;4935527;29;20146;-80
2022/01/22 06:09:51;;;;;;;8.25;1.48;;;6.00;99.90;;;;;;4953698;29;20043;-84
2022/01/22 06:12:27;;;;;;;2.83;0.90;;;6.60;99.90;;;;;;4953852;29;20509;-83
2022/01/22 06:14:52;;;;;;;9.93;1.35;;;6.10;99.90;;;;;;4936590;29;20402;-81
2022/01/22 06:17:18;;;;;;;6.20;1.45;;;6.10;99.90;;;;;;4954357;29;20103;-83
2022/01/22 06:19:44;;;;;;;6.82;1.23;;;6.20;99.90;;;;;;4954009;29;20526;-82
2022/01/22 06:22:09;;;;;;;10.23;1.60;;;6.10;99.90;;;;;;4953918;29;20790;-86
2022/01/22 06:24:35;;;;;;;7.85;1.35;;;6.00;99.90;;;;;;4954374;29;20086;-85
2022/01/22 06:27:01;;;;;;;7.70;1.98;;;6.90;99.90;;;;;;4952468;29;20102;-85
2022/01/22 06:29:26;;;;;;;8.45;1.40;;;6.00;99.90;;;;;;4953242;29;20066;-83
2022/01/22 06:31:52;;;;;;;11.40;1.85;;;6.10;99.90;;;;;;4936106;29;20387;-81
2022/01/22 06:34:18;;;;;;;9.45;1.90;;;6.40;99.90;;;;;;4953506;29;20035;-84
2022/01/22 06:36:44;;;;;;;7.18;1.98;;;6.00;99.90;;;;;;4954029;29;20487;-84
2022/01/22 06:39:14;;;;;;;9.75;1.92;;;6.10;99.90;;;;;;4936397;29;20049;-84
2022/01/22 06:41:44;;;;;;;7.35;2.00;;;6.00;99.90;;;;;;4952921;29;20051;-85
2022/01/22 06:44:16;;;;;;;8.30;1.98;;;6.00;99.90;;;;;;4953415;29;20043;-83
2022/01/22 06:46:44;;;;;;;5.53;1.65;;;6.00;99.90;;;;;;4952216;29;20054;-81
2022/01/22 06:49:09;;;;;;;10.00;1.70;;;6.00;99.90;;;;;;4936307;29;20047;-83
2022/01/22 06:51:35;;;;;;;15.48;1.90;;;6.00;99.90;;;;;;4935838;29;20506;-84
2022/01/22 06:54:03;;;;;;;11.25;2.15;;;6.00;99.90;;;;;;4953785;29;20051;-81
2022/01/22 06:56:30;;;;;;;6.00;1.35;;;6.00;99.90;;;;;;4953634;29;20047;-83
2022/01/22 06:58:57;;;;;;;6.72;1.48;;;6.00;99.90;;;;;;4936130;29;20059;-87
2022/01/22 07:01:24;;;;;;;8.75;1.88;;;6.00;99.90;;;;;;4953328;29;20054;-84
2022/01/22 07:03:49;;;;;;;15.50;1.65;;;6.90;99.90;;;;;;4953322;29;20049;-82
2022/01/22 07:06:15;;;;;;;7.47;1.52;;;6.00;99.90;;;;;;4935838;29;20055;-87
2022/01/22 07:08:41;;;;;;;8.63;1.70;;;6.70;99.90;;;;;;4953398;29;20121;-85
2022/01/22 07:11:07;;;;;;;13.18;1.52;;;5.90;99.90;;;;;;4953179;29;20191;-83
2022/01/22 07:13:33;;;;;;;10.02;1.30;;;6.60;99.90;;;;;;4953075;29;20533;-83
2022/01/22 07:15:59;;;;;;;7.93;1.50;;;5.90;99.90;;;;;;4952944;29;20069;-81
2022/01/22 07:18:25;;;;;;;11.32;1.85;;;5.90;99.90;;;;;;4951292;28;20087;-86
2022/01/22 07:20:52;;;;;;;6.55;1.40;;;5.90;99.90;;;;;;4952585;29;20430;-85
2022/01/22 07:23:53;;;;;;;10.48;2.13;;;5.90;99.90;;;;;;4953053;29;20399;-83
2022/01/22 07:26:08;;;;;;;6.05;1.02;;;5.90;99.90;;;;;;4952353;29;20054;-81
2022/01/22 07:28:34;;;;;;;7.70;1.40;;;5.90;99.90;;;;;;4934957;29;20055;-84
2022/01/22 07:31:00;;;;;;;4.78;1.05;;;5.90;99.90;;;;;;4952779;29;20199;-83
2022/01/22 07:33:27;;;;;;;8.32;1.42;;;5.90;99.90;;;;;;4952695;29;20059;-82
2022/01/22 07:35:53;;;;;;;7.28;0.98;;;5.80;99.90;;;;;;4952457;29;20138;-83
2022/01/22 07:38:20;;;;;;;5.38;1.40;;;5.90;99.90;;;;;;4952690;29;20055;-84
2022/01/22 07:40:46;;;;;;;6.05;1.52;;;5.90;99.90;;;;;;4952024;29;20110;-87
2022/01/22 07:43:11;;;;;;;11.73;2.00;;;5.80;99.90;;;;;;4952409;29;20770;-86
2022/01/22 07:45:37;;;;;;;7.88;1.67;;;5.80;99.90;;;;;;4935085;29;20134;-82
2022/01/22 07:48:03;;;;;;;10.18;1.70;;;6.40;99.90;;;;;;4952510;29;20480;-82
2022/01/22 07:50:29;;;;;;;5.32;1.38;;;5.80;99.90;;;;;;4950972;29;20043;-82
2022/01/22 07:52:54;;;;;;;6.63;1.20;;;5.80;99.90;;;;;;4951364;29;20423;-83
2022/01/22 07:55:22;;;;;;;10.38;1.83;;;5.80;99.90;;;;;;4952352;29;20047;-85
2022/01/22 07:57:48;;;;;;;7.32;1.33;;;5.80;99.90;;;;;;4952457;29;20095;-81
2022/01/22 08:00:17;;;;;;;5.85;1.17;;;6.40;99.90;;;;;;4952408;29;20043;-80
2022/01/22 08:02:43;;;;;;;8.38;1.00;;;5.70;99.90;;;;;;4952511;29;20043;-82
2022/01/22 08:05:10;;;;;;;11.00;1.20;;;5.90;99.90;;;;;;4934890;29;20059;-82
2022/01/22 08:07:35;;;;;;;11.55;1.40;;;5.70;99.90;;;;;;4952255;29;20095;-85
2022/01/22 08:10:02;;;;;;;6.63;0.93;;;5.70;99.90;;;;;;4952138;29;20043;-80
2022/01/22 08:12:28;;;;;;;9.90;1.02;;;6.70;99.90;;;;;;4942602;29;20051;-79
2022/01/22 08:14:54;;;;;;;10.93;1.08;;;5.70;99.90;;;;;;4952284;29;20126;-82
2022/01/22 08:17:20;;;;;;;7.50;1.30;;;5.70;99.90;;;;;;4952275;29;20043;-86
2022/01/22 08:19:46;;;;;;;7.50;1.15;;;6.60;99.90;;;;;;4952026;29;20512;-81
2022/01/22 08:22:12;;;;;;;8.05;1.35;;;6.50;99.90;;;;;;4951523;29;20039;-82
2022/01/22 08:24:38;;;;;;;8.73;0.88;;;5.70;99.90;;;;;;4951936;29;20051;-84
2022/01/22 08:27:40;;;;;;;9.23;0.93;;;5.70;99.90;;;;;;4951900;29;20094;-83
2022/01/22 08:29:50;;;;;;;9.45;1.08;;;5.70;99.90;;;;;;4950006;28;20163;-87
2022/01/22 08:37:25;;;;;;;8.30;1.35;;;6.60;99.90;;;;;;4951820;29;20638;-82
2022/01/22 08:39:51;;;;;;;13.60;1.77;;;5.80;99.90;;;;;;4934463;29;20059;-84
2022/01/22 08:42:16;;;;;;;8.35;1.08;;;5.80;99.90;;;;;;4951716;29;20047;-85
2022/01/22 08:44:42;;;;;;;8.95;1.10;;;6.30;99.90;;;;;;4951862;29;20126;-83
2022/01/22 08:47:08;;;;;;;13.48;1.23;;;5.80;99.90;;;;;;4934448;29;20055;-86
2022/01/22 08:49:34;;;;;;;10.95;1.20;;;5.80;99.90;;;;;;4933550;29;20047;-80
2022/01/22 08:52:01;;;;;;;11.50;1.33;;;5.80;99.90;;;;;;4951726;29;20079;-78
2022/01/22 08:54:27;;;;;;;22.05;1.60;;;5.80;99.90;;;;;;4934518;29;20061;-86
2022/01/22 08:56:53;;;;;;;14.25;1.63;;;5.90;99.90;;;;;;4934481;29;20055;-82
2022/01/22 08:59:18;;;;;;;10.20;1.23;;;5.80;99.90;;;;;;4934521;29;20039;-82
2022/01/22 09:01:48;;;;;;;18.20;1.70;;;5.80;99.90;;;;;;4952105;29;20410;-83
2022/01/22 09:04:14;;;;;;;17.15;1.88;;;6.80;99.90;;;;;;4951690;29;20047;-81
2022/01/22 09:06:40;;;;;;;18.58;1.98;;;5.90;99.90;;;;;;4951694;29;20113;-87
2022/01/22 09:09:09;;;;;;;10.20;1.95;;;5.90;99.90;;;;;;4934950;29;20058;-81
2022/01/22 09:11:36;;;;;;;21.60;1.77;;;6.30;99.90;;;;;;4952213;29;20401;-80
2022/01/22 09:14:05;;;;;;;18.17;1.77;;;5.90;99.90;;;;;;4951859;29;20193;-78
2022/01/22 09:16:30;;;;;;;20.80;2.05;;;5.90;99.90;;;;;;4934061;29;20062;-80
2022/01/22 09:19:05;;;;;;;13.50;2.45;;;5.90;99.90;;;;;;4951750;29;20806;-86
2022/01/22 09:21:31;;;;;;;14.93;2.63;;;5.90;99.90;;;;;;4950867;29;20048;-81
2022/01/22 09:23:56;;;;;;;26.02;2.60;;;6.00;99.90;;;;;;4951535;29;20950;-85
2022/01/22 09:26:22;;;;;;;11.13;2.30;;;6.00;99.90;;;;;;4951786;29;20066;-85
2022/01/22 09:28:48;;;;;;;18.55;2.17;;;6.00;99.90;;;;;;4933840;28;20083;-82
2022/01/22 09:31:14;;;;;;;17.75;3.78;;;6.00;99.90;;;;;;4950678;29;20086;-80
2022/01/22 09:33:41;;;;;;;15.48;2.35;;;6.00;99.90;;;;;;4951620;29;20135;-82
2022/01/22 09:36:07;;;;;;;13.15;2.80;;;6.70;99.90;;;;;;4952010;29;20391;-86
2022/01/22 09:38:32;;;;;;;23.50;2.92;;;5.50;99.90;;;;;;4950660;29;20106;-84
2022/01/22 09:40:58;;;;;;;17.40;2.75;;;6.30;99.90;;;;;;4951038;28;20487;-86
2022/01/22 09:43:24;;;;;;;28.77;2.83;;;6.10;99.90;;;;;;4954715;29;20047;-85
2022/01/22 09:45:50;;;;;;;13.82;2.47;;;6.10;99.90;;;;;;4937367;29;20086;-81
2022/01/22 09:48:15;;;;;;;16.63;3.03;;;6.10;99.90;;;;;;4954710;29;20130;-83
2022/01/22 09:50:41;;;;;;;15.25;2.47;;;6.90;99.90;;;;;;4954200;29;20078;-85
2022/01/22 09:53:07;;;;;;;17.98;2.42;;;6.10;99.90;;;;;;4954753;29;20059;-83
2022/01/22 09:55:33;;;;;;;19.13;2.50;;;6.10;99.90;;;;;;4954597;29;20110;-84
2022/01/22 09:57:59;;;;;;;16.25;2.95;;;6.10;99.90;;;;;;4953119;29;20055;-81
2022/01/22 10:00:26;;;;;;;21.30;2.63;;;6.10;99.90;;;;;;4954183;29;20043;-82
2022/01/22 10:02:55;;;;;;;21.13;2.80;;;6.80;99.90;;;;;;4954445;29;20453;-81
2022/01/22 10:05:31;;;;;;;12.45;2.83;;;6.10;99.90;;;;;;4954299;29;20058;-82
2022/01/22 10:08:21;;;;;;;18.63;2.60;;;6.20;99.90;;;;;;4954369;29;20091;-81
2022/01/22 10:10:48;;;;;;;14.35;2.35;;;6.20;99.90;;;;;;4954564;29;20063;-84
2022/01/22 10:13:13;;;;;;;18.98;2.47;;;6.20;99.90;;;;;;4954335;29;20097;-81
2022/01/22 10:15:40;;;;;;;17.25;2.92;;;6.20;99.90;;;;;;4954037;29;20043;-85
2022/01/22 10:18:07;;;;;;;16.88;2.35;;;6.20;99.90;;;;;;4954267;29;20131;-81
2022/01/22 10:20:36;;;;;;;21.65;2.58;;;6.20;99.90;;;;;;4953330;29;20126;-81
2022/01/22 10:23:09;;;;;;;15.57;2.85;;;6.30;99.90;;;;;;4936751;29;20059;-81
2022/01/22 10:25:43;;;;;;;13.35;2.17;;;6.90;99.90;;;;;;4954160;29;20051;-82
2022/01/22 10:28:14;;;;;;;8.15;2.30;;;6.30;99.90;;;;;;4953283;28;20055;-82
2022/01/22 10:30:43;;;;;;;20.25;3.72;;;6.30;99.90;;;;;;4953864;29;20059;-83
2022/01/22 10:35:44;;;;;;;17.45;3.50;;;7.20;99.90;;;;;;4953766;29;20048;-87
2022/01/22 10:38:10;;;;;;;14.57;2.72;;;6.30;99.90;;;;;;4954196;29;20159;-83
2022/01/22 10:40:38;;;;;;;10.25;2.28;;;6.40;99.90;;;;;;4936556;29;20047;-85
2022/01/22 10:43:32;;;;;;;17.90;2.80;;;6.40;99.90;;;;;;4936505;29;20388;-81
2022/01/22 10:46:03;;;;;;;14.57;3.00;;;6.40;99.90;;;;;;4953551;29;20384;-82
2022/01/22 10:48:30;;;;;;;18.20;2.40;;;6.40;99.90;;;;;;4953480;29;20576;-81
2022/01/22 10:51:21;;;;;;;14.82;2.03;;;6.40;99.90;;;;;;4953113;29;20058;-86
2022/01/22 10:53:53;;;;;;;15.25;2.17;;;6.40;99.90;;;;;;4950778;28;20086;-81
2022/01/22 10:56:23;;;;;;;12.80;2.45;;;6.40;99.90;;;;;;4950380;29;20106;-86
2022/01/22 10:59:11;;;;;;;14.07;2.83;;;7.20;99.90;;;;;;4953550;29;20109;-84
2022/01/22 11:01:56;;;;;;;12.07;2.90;;;6.40;99.90;;;;;;4953419;29;20054;-82
2022/01/22 11:04:33;;;;;;;18.80;3.58;;;6.40;99.90;;;;;;4953414;29;20405;-83
2022/01/22 11:07:07;;;;;;;18.48;3.58;;;6.40;99.90;;;;;;4935550;29;20596;-79
2022/01/22 11:09:35;;;;;;;15.90;3.43;;;6.50;99.90;;;;;;4936172;29;20398;-81
2022/01/22 11:12:06;;;;;;;12.98;3.33;;;6.50;99.90;;;;;;4952585;29;20387;-78
2022/01/22 11:14:34;;;;;;;11.60;3.22;;;6.50;99.90;;;;;;4935604;29;20508;-80
2022/01/22 11:17:00;;;;;;;17.52;3.72;;;6.50;99.90;;;;;;4953019;29;20093;-78
2022/01/22 11:19:33;;;;;;;16.67;3.30;;;6.50;99.90;;;;;;4953116;29;20074;-80
2022/01/22 11:22:05;;;;;;;11.80;3.58;;;6.50;99.90;;;;;;4958458;28;20051;-77
2022/01/22 11:24:35;;;;;;;18.10;2.75;;;7.00;99.90;;;;;;4935393;29;20652;-79
2022/01/22 11:27:03;;;;;;;13.30;2.90;;;7.00;99.90;;;;;;4935433;29;20608;-84
2022/01/22 11:29:46;;;;;;;13.88;2.85;;;6.50;99.90;;;;;;4951779;28;20462;-85
2022/01/22 11:32:14;;;;;;;11.45;2.95;;;6.60;99.90;;;;;;4950699;29;20577;-80
2022/01/22 11:34:42;;;;;;;16.27;3.30;;;6.60;99.90;;;;;;4935707;29;20066;-82
2022/01/22 11:37:46;;;;;;;19.27;3.08;;;6.60;99.90;;;;;;4952762;29;20053;-85
2022/01/22 11:40:16;;;;;;;19.23;2.88;;;6.60;99.90;;;;;;4952474;29;20157;-84
2022/01/22 11:43:08;;;;;;;14.35;3.22;;;6.60;99.90;;;;;;4935385;29;20050;-85
2022/01/22 11:45:46;;;;;;;18.10;3.97;;;6.60;99.90;;;;;;4952492;29;20086;-87
2022/01/22 11:48:17;;;;;;;19.42;3.70;;;6.60;99.90;;;;;;4952479;29;20376;-81
2022/01/22 11:50:46;;;;;;;19.10;3.75;;;6.60;99.90;;;;;;4951992;29;20054;-82
2022/01/22 11:53:30;;;;;;;17.55;4.15;;;6.60;99.90;;;;;;4952473;29;20047;-84
2022/01/22 11:56:11;;;;;;;15.88;3.55;;;6.60;99.90;;;;;;4935011;29;20043;-83
2022/01/22 11:58:56;;;;;;;23.73;4.03;;;6.60;99.90;;;;;;4935228;29;20597;-81
2022/01/22 12:01:45;;;;;;;20.80;4.47;;;6.60;99.90;;;;;;4952182;29;20051;-84
2022/01/22 12:04:14;;;;;;;10.80;3.55;;;6.60;99.90;;;;;;4934513;28;20283;-86
2022/01/22 12:07:02;;;;;;;16.42;3.10;;;6.60;99.90;;;;;;4951357;29;20078;-83
2022/01/22 12:09:31;;;;;;;13.40;3.15;;;6.60;99.90;;;;;;4951820;29;20055;-80
2022/01/22 12:14:47;;;;;;;13.82;3.05;;;7.20;99.90;;;;;;4911253;29;20060;-85
2022/01/22 12:17:19;;;;;;;17.67;3.50;;;6.70;99.90;;;;;;4896010;29;20074;-78
2022/01/22 12:19:52;;;;;;;17.25;4.65;;;6.60;99.90;;;;;;4911444;29;20139;-80
2022/01/22 12:22:38;;;;;;;16.02;3.60;;;6.50;99.90;;;;;;4895398;29;20052;-79
2022/01/22 12:25:16;;;;;;;18.27;3.38;;;6.50;99.90;;;;;;4911298;29;20075;-80
2022/01/22 12:27:43;;;;;;;18.42;4.38;;;6.60;99.90;;;;;;4895315;29;20052;-79
2022/01/22 12:30:09;;;;;;;16.88;3.38;;;6.60;99.90;;;;;;4894582;29;20075;-83
2022/01/22 12:32:48;;;;;;;15.07;3.35;;;6.60;99.90;;;;;;4910393;29;20136;-82
2022/01/22 12:35:34;;;;;;;17.75;3.78;;;6.60;99.90;;;;;;4910914;29;20830;-79
2022/01/22 12:38:28;;;;;;;15.35;2.90;;;6.60;99.90;;;;;;4910995;29;20048;-81
2022/01/22 12:40:59;;;;;;;14.95;3.58;;;6.70;99.90;;;;;;4892359;29;20582;-80
2022/01/22 12:43:31;;;;;;;12.38;2.70;;;6.70;99.90;;;;;;4908599;29;20076;-79
2022/01/22 12:46:00;;;;;;;16.95;2.58;;;6.80;99.90;;;;;;4911031;29;20140;-89
2022/01/22 12:48:31;;;;;;;10.20;2.60;;;6.70;99.90;;;;;;4910970;29;20040;-86
2022/01/22 12:51:02;;;;;;;13.27;2.25;;;6.70;99.90;;;;;;4900020;29;20455;-84
2022/01/22 12:53:29;;;;;;;14.50;2.38;;;7.30;99.90;;;;;;4951431;29;20521;-79
2022/01/22 12:58:21;;;;;;;7.80;1.40;;;6.70;99.90;;;;;;4951614;29;20605;-84
2022/01/22 13:00:48;;;;;;;10.23;1.90;;;6.70;99.90;;;;;;4951374;29;20399;-81
2022/01/22 13:03:29;;;;;;;13.13;1.63;;;6.60;99.90;;;;;;4951665;29;20058;-87
2022/01/22 13:05:55;;;;;;;8.93;1.52;;;7.40;99.90;;;;;;4934264;29;20051;-84
2022/01/22 13:08:29;;;;;;;11.32;1.95;;;7.20;99.90;;;;;;4951446;29;20055;-84
2022/01/22 13:10:57;;;;;;;11.13;1.90;;;7.40;99.90;;;;;;4950264;29;20059;-85
2022/01/22 13:13:23;;;;;;;8.23;1.90;;;6.60;99.90;;;;;;4951418;29;20051;-80
2022/01/22 13:16:10;;;;;;;16.58;1.77;;;6.60;99.90;;;;;;4951735;28;20039;-88
2022/01/22 13:18:51;;;;;;;10.02;1.67;;;6.60;99.90;;;;;;4953459;29;20062;-87
2022/01/22 13:21:21;;;;;;;14.15;1.67;;;6.60;99.90;;;;;;4954989;29;20051;-83
2022/01/22 13:24:09;;;;;;;11.27;1.90;;;6.60;99.90;;;;;;4955075;29;20135;-83
2022/01/22 13:26:45;;;;;;;12.63;1.52;;;6.60;99.90;;;;;;4954897;29;20047;-81
2022/01/22 13:29:29;;;;;;;10.85;1.88;;;6.70;99.90;;;;;;4954826;28;20083;-84
2022/01/22 13:31:59;;;;;;;15.52;2.20;;;6.60;99.90;;;;;;4954897;29;20043;-83
2022/01/22 13:34:36;;;;;;;11.70;1.63;;;6.60;99.90;;;;;;4954896;29;20117;-82
2022/01/22 13:38:13;;;;;;;14.48;1.90;;;6.60;99.90;;;;;;4954822;29;20078;-82
2022/01/22 13:40:21;;;;;;;12.32;2.03;;;7.10;99.90;;;;;;4952942;29;20130;-82
2022/01/22 13:48:36;;;;;;;8.88;1.98;;;6.60;99.90;;;;;;4937252;29;20081;-83
2022/01/22 13:51:04;;;;;;;15.95;2.05;;;6.60;99.90;;;;;;4954423;29;20090;-83
2022/01/22 13:53:32;;;;;;;12.45;1.60;;;6.60;99.90;;;;;;4954535;29;20388;-80
2022/01/22 13:56:06;;;;;;;16.65;1.40;;;6.50;99.90;;;;;;4954591;29;20066;-84
2022/01/22 13:58:33;;;;;;;10.60;1.47;;;6.50;99.90;;;;;;4954249;29;20066;-80
2022/01/22 14:01:05;;;;;;;5.55;1.13;;;7.10;99.90;;;;;;4954246;29;20278;-81
2022/01/22 14:03:38;;;;;;;13.63;1.50;;;6.50;99.90;;;;;;4954660;29;20088;-83
2022/01/22 14:06:05;;;;;;;7.22;1.20;;;6.50;99.90;;;;;;4953939;29;20055;-81
2022/01/22 14:08:34;;;;;;;8.98;1.42;;;6.50;99.90;;;;;;4954235;29;20051;-84
2022/01/22 14:11:03;;;;;;;10.55;1.67;;;6.50;99.90;;;;;;4954439;29;20055;-84
2022/01/22 14:13:28;;;;;;;4.75;0.90;;;6.50;99.90;;;;;;4954019;29;20051;-84
2022/01/22 14:15:54;;;;;;;9.63;1.55;;;6.50;99.90;;;;;;4954179;29;20050;-84
2022/01/22 14:18:22;;;;;;;6.43;1.10;;;6.50;99.90;;;;;;4954281;29;20431;-85
2022/01/22 14:20:52;;;;;;;11.13;0.90;;;6.50;99.90;;;;;;4936812;29;20051;-82
2022/01/22 14:23:23;;;;;;;5.05;0.95;;;6.50;99.90;;;;;;4954008;29;20159;-84
2022/01/22 14:26:00;;;;;;;8.73;1.00;;;6.50;99.90;;;;;;4954033;29;20129;-82
2022/01/22 14:28:42;;;;;;;6.20;0.70;;;6.40;99.90;;;;;;4952644;28;20125;-84
2022/01/22 14:31:33;;;;;;;6.18;1.05;;;6.40;99.90;;;;;;4936777;29;20073;-83
2022/01/22 14:34:13;;;;;;;7.38;1.70;;;6.40;99.90;;;;;;4936779;29;20066;-85
2022/01/22 14:36:41;;;;;;;8.27;1.10;;;6.40;99.90;;;;;;4954122;29;20039;-85
2022/01/22 14:44:36;;;;;;;;;;;6.50;99.90;;;;;;4954114;29;20097;-84
2022/01/22 14:47:15;;;;;;;4.07;0.93;;;6.80;99.90;;;;;;4953612;29;19949;-81
2022/01/22 14:49:45;;;;;;;9.40;1.30;;;6.40;99.90;;;;;;4953482;29;20134;-83